createdAt,value
2019-01-19T00:00:41.029Z,-2.65
2019-01-19T00:04:08.593Z,-2.65
2019-01-19T00:07:25.188Z,-2.69
2019-01-19T00:10:53.962Z,-2.77
2019-01-19T00:14:11.721Z,-2.79
2019-01-19T00:17:50.046Z,-2.76
2019-01-19T00:21:28.570Z,-2.72
2019-01-19T00:24:50.115Z,-2.77
2019-01-19T00:28:14.543Z,-2.75
2019-01-19T00:31:34.626Z,-2.75
2019-01-19T00:34:54.185Z,-2.81
2019-01-19T00:38:10.566Z,-2.76
2019-01-19T00:41:35.053Z,-2.73
2019-01-19T00:45:01.069Z,-2.74
2019-01-19T00:48:21.141Z,-2.80
2019-01-19T00:51:40.482Z,-2.73
2019-01-19T00:54:55.842Z,-2.75
2019-01-19T00:58:22.332Z,-2.77
2019-01-19T01:01:56.451Z,-2.79
2019-01-19T01:05:03.674Z,-2.82
2019-01-19T01:08:37.719Z,-2.84
2019-01-19T01:11:50.122Z,-2.82
2019-01-19T01:15:15.005Z,-2.87
2019-01-19T01:18:41.770Z,-2.93
2019-01-19T01:22:03.164Z,-2.95
2019-01-19T01:25:35.139Z,-2.96
2019-01-19T01:28:57.414Z,-2.96
2019-01-19T01:32:37.189Z,-2.95
2019-01-19T01:36:00.446Z,-2.92
2019-01-19T01:39:09.387Z,-2.93
2019-01-19T01:42:28.135Z,-2.95
2019-01-19T01:45:41.048Z,-2.95
2019-01-19T01:49:05.173Z,-3.00
2019-01-19T01:52:36.195Z,-2.97
2019-01-19T01:55:49.707Z,-2.94
2019-01-19T01:59:35.651Z,-2.92
2019-01-19T02:03:06.719Z,-2.86
2019-01-19T02:06:16.575Z,-2.90
2019-01-19T02:09:37.940Z,-2.88
2019-01-19T02:12:59.039Z,-2.91
2019-01-19T02:16:21.065Z,-2.92
2019-01-19T02:19:33.833Z,-2.94
2019-01-19T02:22:42.431Z,-3.00
2019-01-19T02:26:15.007Z,-3.02
2019-01-19T02:29:55.589Z,-3.06
2019-01-19T02:33:46.298Z,-3.11
2019-01-19T02:36:53.405Z,-3.11
2019-01-19T02:40:33.637Z,-3.15
2019-01-19T02:43:37.678Z,-3.14
2019-01-19T02:47:00.956Z,-3.16
2019-01-19T02:50:35.345Z,-3.17
2019-01-19T02:54:13.080Z,-3.14
2019-01-19T02:57:42.431Z,-3.16
2019-01-19T03:01:14.900Z,-3.20
2019-01-19T03:04:30.056Z,-3.20
2019-01-19T03:07:52.747Z,-3.25
2019-01-19T03:11:13.990Z,-3.28
2019-01-19T03:14:44.837Z,-3.28
2019-01-19T03:18:32.254Z,-3.30
2019-01-19T03:22:03.469Z,-3.33
2019-01-19T03:25:18.244Z,-3.32
2019-01-19T03:28:42.435Z,-3.29
2019-01-19T03:32:07.174Z,-3.29
2019-01-19T03:35:31.676Z,-3.27
2019-01-19T03:39:12.376Z,-3.25
2019-01-19T03:42:32.872Z,-3.30
2019-01-19T03:46:00.065Z,-3.38
2019-01-19T03:49:24.747Z,-3.34
2019-01-19T03:52:52.950Z,-3.41
2019-01-19T03:56:17.279Z,-3.43
2019-01-19T03:59:43.349Z,-3.52
2019-01-19T04:03:01.361Z,-3.56
2019-01-19T04:06:28.256Z,-3.54
2019-01-19T04:09:52.031Z,-3.52
2019-01-19T04:13:08.042Z,-3.54
2019-01-19T04:16:39.267Z,-3.49
2019-01-19T04:20:12.735Z,-3.52
2019-01-19T04:23:14.010Z,-3.53
2019-01-19T04:26:16.747Z,-3.55
2019-01-19T04:29:13.130Z,-3.58
2019-01-19T04:32:08.855Z,-3.58
2019-01-19T04:35:05.347Z,-3.56
2019-01-19T04:38:00.799Z,-3.64
2019-01-19T04:41:05.318Z,-3.61
2019-01-19T04:44:20.430Z,-3.61
2019-01-19T04:47:15.932Z,-3.67
2019-01-19T04:50:12.339Z,-3.64
2019-01-19T04:53:09.830Z,-3.67
2019-01-19T04:56:06.434Z,-3.73
2019-01-19T04:59:04.107Z,-3.67
2019-01-19T05:02:01.460Z,-3.73
2019-01-19T05:04:58.096Z,-3.76
2019-01-19T05:07:53.539Z,-3.85
2019-01-19T05:10:50.106Z,-3.88
2019-01-19T05:13:46.312Z,-3.86
2019-01-19T05:16:42.821Z,-3.85
2019-01-19T05:19:37.651Z,-3.87
2019-01-19T05:22:33.798Z,-3.87
2019-01-19T05:25:30.307Z,-3.85
2019-01-19T05:28:28.696Z,-3.84
2019-01-19T05:31:24.910Z,-3.88
2019-01-19T05:34:21.685Z,-3.89
2019-01-19T05:37:18.217Z,-4.00
2019-01-19T05:40:14.816Z,-4.02
2019-01-19T05:43:11.302Z,-4.08
2019-01-19T05:46:06.043Z,-4.12
2019-01-19T05:49:02.293Z,-4.12
2019-01-19T05:51:59.911Z,-4.07
2019-01-19T05:54:56.421Z,-4.10
2019-01-19T05:57:53.422Z,-4.14
2019-01-19T06:00:50.039Z,-4.22
2019-01-19T06:03:46.563Z,-4.19
2019-01-19T06:06:46.959Z,-4.25
2019-01-19T06:09:39.336Z,-4.30
2019-01-19T06:12:34.182Z,-4.29
2019-01-19T06:15:30.909Z,-4.29
2019-01-19T06:18:26.633Z,-4.34
2019-01-19T06:21:24.023Z,-4.40
2019-01-19T06:24:20.736Z,-4.46
2019-01-19T06:27:17.982Z,-4.44
2019-01-19T06:30:13.287Z,-4.38
2019-01-19T06:33:10.443Z,-4.40
2019-01-19T06:36:08.748Z,-4.42
2019-01-19T06:39:03.455Z,-4.41
2019-01-19T06:42:01.215Z,-4.40
2019-01-19T06:44:56.706Z,-4.35
2019-01-19T06:47:53.253Z,-4.43
2019-01-19T06:50:48.753Z,-4.49
2019-01-19T06:54:01.345Z,-4.49
2019-01-19T06:56:52.396Z,-4.49
2019-01-19T06:59:47.588Z,-4.44
2019-01-19T07:02:45.457Z,-4.41
2019-01-19T07:05:41.096Z,-4.40
2019-01-19T07:08:38.258Z,-4.39
2019-01-19T07:11:33.572Z,-4.30
2019-01-19T07:14:31.112Z,-4.31
2019-01-19T07:17:26.609Z,-4.37
2019-01-19T07:20:23.341Z,-4.30
2019-01-19T07:23:19.873Z,-4.26
2019-01-19T07:26:16.621Z,-4.25
2019-01-19T07:29:14.079Z,-4.30
2019-01-19T07:32:09.765Z,-4.27
2019-01-19T07:35:05.779Z,-4.29
2019-01-19T07:38:01.189Z,-4.24
2019-01-19T07:40:57.804Z,-4.22
2019-01-19T07:43:54.574Z,-4.17
2019-01-19T07:46:55.966Z,-4.21
2019-01-19T07:49:46.894Z,-4.18
2019-01-19T07:52:43.624Z,-4.21
2019-01-19T07:55:39.363Z,-4.24
2019-01-19T07:58:34.880Z,-4.19
2019-01-19T08:01:32.422Z,-4.15
2019-01-19T08:04:28.940Z,-4.13
2019-01-19T08:07:25.483Z,-4.12
2019-01-19T08:10:20.926Z,-4.09
2019-01-19T08:13:18.407Z,-4.03
2019-01-19T08:16:13.852Z,-4.01
2019-01-19T08:19:09.962Z,-3.97
2019-01-19T08:22:04.985Z,-3.92
2019-01-19T08:25:01.518Z,-3.79
2019-01-19T08:27:59.099Z,-3.71
2019-01-19T08:30:56.489Z,-3.71
2019-01-19T08:33:55.873Z,-3.68
2019-01-19T08:36:53.119Z,-3.60
2019-01-19T08:39:54.823Z,-3.55
2019-01-19T08:42:51.451Z,-3.49
2019-01-19T08:45:49.286Z,-3.44
2019-01-19T08:48:45.026Z,-3.37
2019-01-19T08:51:41.503Z,-3.24
2019-01-19T08:54:37.178Z,-3.22
2019-01-19T08:57:33.741Z,-3.13
2019-01-19T09:00:43.076Z,-3.00
2019-01-19T09:03:40.403Z,-2.94
2019-01-19T09:06:42.410Z,-2.84
2019-01-19T09:09:38.303Z,-2.75
2019-01-19T09:12:46.304Z,-2.69
2019-01-19T09:15:42.090Z,-2.62
2019-01-19T09:18:38.445Z,-2.52
2019-01-19T09:21:34.151Z,-2.47
2019-01-19T09:24:40.153Z,-2.40
2019-01-19T09:27:37.968Z,-2.33
2019-01-19T09:30:36.493Z,-2.24
2019-01-19T09:33:33.197Z,-2.17
2019-01-19T09:36:29.982Z,-2.07
2019-01-19T09:39:26.835Z,-1.98
2019-01-19T09:42:22.497Z,-1.92
2019-01-19T09:45:21.288Z,-1.88
2019-01-19T09:48:16.800Z,-1.80
2019-01-19T09:51:12.638Z,-1.73
2019-01-19T09:54:08.596Z,-1.65
2019-01-19T09:57:05.152Z,-1.62
2019-01-19T10:00:01.745Z,-1.61
2019-01-19T10:02:57.182Z,-1.57
2019-01-19T10:05:54.720Z,-1.49
2019-01-19T10:08:50.265Z,-1.49
2019-01-19T10:11:46.718Z,-1.47
2019-01-19T10:14:43.441Z,-1.44
2019-01-19T10:17:40.324Z,-1.41
2019-01-19T10:20:38.130Z,-1.35
2019-01-19T10:23:34.648Z,-1.29
2019-01-19T10:26:32.150Z,-1.27
2019-01-19T10:29:27.953Z,-1.20
2019-01-19T10:32:25.780Z,-1.19
2019-01-19T10:35:24.499Z,-1.15
2019-01-19T10:38:21.527Z,-1.13
2019-01-19T10:41:21.106Z,-1.10
2019-01-19T10:44:20.511Z,-1.03
2019-01-19T10:47:17.390Z,-0.96
2019-01-19T10:50:13.889Z,-0.85
2019-01-19T10:53:13.418Z,-0.83
2019-01-19T10:56:10.492Z,-0.94
2019-01-19T10:59:06.287Z,-0.90
2019-01-19T11:02:02.624Z,-0.87
2019-01-19T11:04:58.793Z,-0.85
2019-01-19T11:07:55.700Z,-0.83
2019-01-19T11:10:52.486Z,-0.74
2019-01-19T11:13:48.014Z,-0.74
2019-01-19T11:16:46.625Z,-0.71
2019-01-19T11:19:44.377Z,-0.61
2019-01-19T11:22:39.325Z,-0.59
2019-01-19T11:25:47.286Z,-0.52
2019-01-19T11:28:48.173Z,-0.47
2019-01-19T11:31:45.914Z,-0.43
2019-01-19T11:34:41.539Z,-0.38
2019-01-19T11:37:38.562Z,-0.34
2019-01-19T11:40:33.315Z,-0.32
2019-01-19T11:43:29.814Z,-0.34
2019-01-19T11:46:26.424Z,-0.37
2019-01-19T11:49:23.158Z,-0.35
2019-01-19T11:52:19.899Z,-0.35
2019-01-19T11:55:14.637Z,-0.31
2019-01-19T11:58:12.578Z,-0.26
2019-01-19T12:01:08.840Z,-0.27
2019-01-19T12:04:05.138Z,-0.36
2019-01-19T12:07:01.677Z,-0.33
2019-01-19T12:09:58.503Z,-0.33
2019-01-19T12:12:54.349Z,-0.27
2019-01-19T12:15:50.851Z,-0.28
2019-01-19T12:18:48.142Z,-0.33
2019-01-19T12:21:43.752Z,-0.33
2019-01-19T12:24:39.978Z,-0.33
2019-01-19T12:27:36.442Z,-0.35
2019-01-19T12:30:35.638Z,-0.38
2019-01-19T12:33:31.195Z,-0.43
2019-01-19T12:36:28.845Z,-0.39
2019-01-19T12:39:24.364Z,-0.39
2019-01-19T12:42:20.755Z,-0.41
2019-01-19T12:45:17.518Z,-0.37
2019-01-19T12:48:19.158Z,-0.39
2019-01-19T12:51:16.110Z,-0.33
2019-01-19T12:54:11.645Z,-0.30
2019-01-19T12:57:08.301Z,-0.27
2019-01-19T13:00:04.815Z,-0.28
2019-01-19T13:03:00.412Z,-0.23
2019-01-19T13:06:29.707Z,-0.20
2019-01-19T13:09:35.980Z,-0.20
2019-01-19T13:12:51.059Z,-0.17
2019-01-19T13:16:10.331Z,-0.16
2019-01-19T13:19:42.847Z,-0.15
2019-01-19T13:22:59.023Z,-0.15
2019-01-19T13:26:22.567Z,-0.16
2019-01-19T13:30:01.995Z,-0.11
2019-01-19T13:33:11.749Z,-0.09
2019-01-19T13:36:37.418Z,-0.01
2019-01-19T13:40:07.776Z,-0.02
2019-01-19T13:43:32.905Z,-0.01
2019-01-19T13:47:00.882Z,-0.05
2019-01-19T13:50:27.440Z,-0.07
2019-01-19T13:53:55.883Z,-0.03
2019-01-19T13:57:35.709Z,0.02
2019-01-19T14:01:10.282Z,-0.01
2019-01-19T14:04:45.692Z,-0.02
2019-01-19T14:08:30.729Z,0.06
2019-01-19T14:11:47.512Z,0.08
2019-01-19T14:15:02.245Z,0.07
2019-01-19T14:18:23.303Z,0.07
2019-01-19T14:21:45.862Z,0.06
2019-01-19T14:24:54.823Z,0.05
2019-01-19T14:28:23.777Z,0.03
2019-01-19T14:31:57.671Z,0.03
2019-01-19T14:35:26.087Z,0.05
2019-01-19T14:38:47.111Z,0.10
2019-01-19T14:42:19.347Z,0.06
2019-01-19T14:45:55.658Z,0.05
2019-01-19T14:49:26.460Z,0.05
2019-01-19T14:52:35.116Z,0.06
2019-01-19T14:56:05.053Z,0.05
2019-01-19T14:59:44.191Z,0.07
2019-01-19T15:03:12.461Z,0.04
2019-01-19T15:06:43.373Z,-0.02
2019-01-19T15:10:02.287Z,-0.03
2019-01-19T15:13:23.677Z,-0.06
2019-01-19T15:16:52.288Z,-0.12
2019-01-19T15:20:16.174Z,-0.16
2019-01-19T15:23:52.997Z,-0.21
2019-01-19T15:27:16.701Z,-0.29
2019-01-19T15:30:35.343Z,-0.36
2019-01-19T15:33:57.715Z,-0.40
2019-01-19T15:37:31.274Z,-0.48
2019-01-19T15:40:51.601Z,-0.53
2019-01-19T15:44:25.933Z,-0.59
2019-01-19T15:47:44.702Z,-0.66
2019-01-19T15:51:21.907Z,-0.73
2019-01-19T15:55:02.056Z,-0.71
2019-01-19T15:58:33.726Z,-0.78
2019-01-19T16:02:08.295Z,-0.84
2019-01-19T16:05:16.012Z,-0.89
2019-01-19T16:08:45.739Z,-0.96
2019-01-19T16:12:01.243Z,-1.00
2019-01-19T16:15:36.146Z,-1.04
2019-01-19T16:18:56.720Z,-1.08
2019-01-19T16:22:15.553Z,-1.13
2019-01-19T16:25:44.550Z,-1.18
2019-01-19T16:29:13.269Z,-1.20
2019-01-19T16:32:38.351Z,-1.23
2019-01-19T16:35:46.874Z,-1.27
2019-01-19T16:39:10.096Z,-1.33
2019-01-19T16:42:39.695Z,-1.38
2019-01-19T16:45:47.636Z,-1.42
2019-01-19T16:49:01.229Z,-1.45
2019-01-19T16:52:21.844Z,-1.47
2019-01-19T16:55:39.604Z,-1.49
2019-01-19T16:59:17.674Z,-1.52
2019-01-19T17:02:43.959Z,-1.50
2019-01-19T17:06:09.199Z,-1.51
2019-01-19T17:09:23.702Z,-1.55
2019-01-19T17:12:47.373Z,-1.59
2019-01-19T17:16:01.833Z,-1.63
2019-01-19T17:19:18.546Z,-1.67
2019-01-19T17:22:58.739Z,-1.71
2019-01-19T17:26:33.223Z,-1.72
2019-01-19T17:30:05.782Z,-1.71
2019-01-19T17:33:28.285Z,-1.73
2019-01-19T17:36:55.524Z,-1.79
2019-01-19T17:40:29.301Z,-1.78
2019-01-19T17:43:55.776Z,-1.81
2019-01-19T17:47:22.629Z,-1.86
2019-01-19T17:50:44.887Z,-1.87
2019-01-19T17:54:13.650Z,-1.87
2019-01-19T17:57:33.807Z,-1.95
2019-01-19T18:00:56.428Z,-1.94
2019-01-19T18:04:30.625Z,-1.96
2019-01-19T18:07:53.183Z,-1.97
2019-01-19T18:11:18.856Z,-2.02
2019-01-19T18:14:58.337Z,-2.07
2019-01-19T18:18:22.254Z,-2.08
2019-01-19T18:21:53.238Z,-2.08
2019-01-19T18:25:05.429Z,-2.10
2019-01-19T18:28:32.674Z,-2.16
2019-01-19T18:31:56.373Z,-2.19
2019-01-19T18:35:36.126Z,-2.22
2019-01-19T18:38:49.541Z,-2.25
2019-01-19T18:42:30.021Z,-2.25
2019-01-19T18:45:18.107Z,-2.32
2019-01-19T18:48:34.275Z,-2.34
2019-01-19T18:51:54.561Z,-2.34
2019-01-19T18:55:19.266Z,-2.37
2019-01-19T18:58:39.069Z,-2.36
2019-01-19T19:02:05.973Z,-2.41
2019-01-19T19:05:32.896Z,-2.41
2019-01-19T19:09:01.418Z,-2.43
2019-01-19T19:12:30.096Z,-2.46
2019-01-19T19:15:32.360Z,-2.48
2019-01-19T19:18:54.335Z,-2.50
2019-01-19T19:22:11.850Z,-2.54
2019-01-19T19:25:35.435Z,-2.57
2019-01-19T19:28:49.078Z,-2.61
2019-01-19T19:32:06.569Z,-2.60
2019-01-19T19:35:22.650Z,-2.63
2019-01-19T19:38:48.936Z,-2.66
2019-01-19T19:42:17.702Z,-2.72
2019-01-19T19:45:45.789Z,-2.74
2019-01-19T19:49:18.780Z,-2.81
2019-01-19T19:52:27.855Z,-2.83
2019-01-19T19:55:09.611Z,-2.82
2019-01-19T19:58:05.430Z,-2.84
2019-01-19T20:01:02.363Z,-2.89
2019-01-19T20:03:59.098Z,-2.93
2019-01-19T20:06:59.067Z,-2.94
2019-01-19T20:10:05.129Z,-2.93
2019-01-19T20:13:02.822Z,-2.93
2019-01-19T20:16:08.508Z,-2.97
2019-01-19T20:19:05.093Z,-3.07
2019-01-19T20:22:02.379Z,-3.14
2019-01-19T20:25:05.203Z,-3.20
2019-01-19T20:28:01.102Z,-3.22
2019-01-19T20:30:57.262Z,-3.25
2019-01-19T20:33:53.187Z,-3.24
2019-01-19T20:36:49.846Z,-3.24
2019-01-19T20:39:45.341Z,-3.26
2019-01-19T20:42:41.817Z,-3.28
2019-01-19T20:45:44.939Z,-3.31
2019-01-19T20:48:41.821Z,-3.34
2019-01-19T20:51:39.603Z,-3.39
2019-01-19T20:54:35.141Z,-3.41
2019-01-19T20:57:32.908Z,-3.43
2019-01-19T21:00:31.341Z,-3.43
2019-01-19T21:03:28.856Z,-3.42
2019-01-19T21:06:25.293Z,-3.42
2019-01-19T21:09:23.797Z,-3.44
2019-01-19T21:12:19.436Z,-3.50
2019-01-19T21:15:17.083Z,-3.56
2019-01-19T21:18:14.751Z,-3.61
2019-01-19T21:21:10.321Z,-3.65
2019-01-19T21:24:08.123Z,-3.64
2019-01-19T21:27:03.225Z,-3.61
2019-01-19T21:29:59.706Z,-3.66
2019-01-19T21:32:55.543Z,-3.75
2019-01-19T21:35:52.135Z,-3.79
2019-01-19T21:38:47.890Z,-3.80
2019-01-19T21:41:44.465Z,-3.80
2019-01-19T21:44:42.256Z,-3.76
2019-01-19T21:47:39.105Z,-3.71
2019-01-19T21:50:36.769Z,-3.67
2019-01-19T21:53:32.366Z,-3.65
2019-01-19T21:56:28.905Z,-3.67
2019-01-19T21:59:24.614Z,-3.66
2019-01-19T22:02:21.490Z,-3.67
2019-01-19T22:05:19.570Z,-3.67
2019-01-19T22:08:16.395Z,-3.68
2019-01-19T22:11:12.950Z,-3.69
2019-01-19T22:14:08.484Z,-3.71
2019-01-19T22:17:04.557Z,-3.77
2019-01-19T22:20:00.039Z,-3.79
2019-01-19T22:22:58.001Z,-3.81
2019-01-19T22:25:53.767Z,-3.82
2019-01-19T22:28:50.488Z,-3.85
2019-01-19T22:31:46.086Z,-3.87
2019-01-19T22:34:53.984Z,-3.89
2019-01-19T22:37:50.506Z,-3.90
2019-01-19T22:40:53.445Z,-3.97
2019-01-19T22:43:45.976Z,-3.93
2019-01-19T22:46:41.468Z,-3.92
2019-01-19T22:49:38.006Z,-3.92
2019-01-19T22:52:34.570Z,-3.95
2019-01-19T22:55:32.720Z,-3.95
2019-01-19T22:58:28.903Z,-3.95
2019-01-19T23:01:43.692Z,-3.97
2019-01-19T23:04:40.237Z,-3.97
2019-01-19T23:07:35.808Z,-3.98
2019-01-19T23:10:32.516Z,-4.01
2019-01-19T23:13:28.007Z,-4.07
2019-01-19T23:16:25.070Z,-4.06
2019-01-19T23:19:22.608Z,-4.09
2019-01-19T23:22:19.304Z,-4.11
2019-01-19T23:25:18.079Z,-4.11
2019-01-19T23:28:13.676Z,-4.12
2019-01-19T23:31:13.366Z,-4.16
2019-01-19T23:34:10.333Z,-4.18
2019-01-19T23:37:08.095Z,-4.18
2019-01-19T23:40:07.710Z,-4.18
2019-01-19T23:43:04.157Z,-4.18
2019-01-19T23:46:00.907Z,-4.20
2019-01-19T23:48:58.320Z,-4.23
2019-01-19T23:51:57.450Z,-4.26
2019-01-19T23:54:55.248Z,-4.29
2019-01-19T23:57:57.221Z,-4.29
